Time;durP1;ratioP1;P1;durP2;ratioP2;P2;SDS_P1;SDS_P2;PMS_P1;PMS_P2;Temp;Humidity;BMP_temperature;BMP_pressure;BME280_temperature;BME280_humidity;BME280_pressure;Samples;Min_cycle;Max_cycle;Signal;HPM_P1;HPM_P2
2021/10/04 11:08:24;;;;;;;5.32;1.45;;;19.60;64.10;;;;;;5065461;28;20406;-63
2021/10/04 11:10:51;;;;;;;9.00;2.22;;;19.70;65.30;;;;;;5067769;28;20032;-64
2021/10/04 11:13:26;;;;;;;3.80;1.90;;;19.80;64.80;;;;;;5063969;28;20029;-64
2021/10/04 11:15:55;;;;;;;3.40;1.65;;;20.00;61.30;;;;;;5064363;28;20040;-64
2021/10/04 11:18:21;;;;;;;4.55;1.50;;;20.10;58.70;;;;;;5067472;28;20486;-64
2021/10/04 11:20:46;;;;;;;2.88;1.30;;;20.20;58.10;;;;;;5053378;28;20029;-64
2021/10/04 11:23:17;;;;;;;5.40;1.50;;;20.20;57.60;;;;;;5047466;28;20033;-63
2021/10/04 11:25:48;;;;;;;5.75;2.13;;;20.30;56.90;;;;;;5048152;28;20025;-63
2021/10/04 11:28:16;;;;;;;4.15;1.20;;;20.30;55.70;;;;;;5048019;28;20029;-64
2021/10/04 11:30:52;;;;;;;3.97;1.15;;;20.40;55.20;;;;;;5046946;28;20461;-63
2021/10/04 11:33:17;;;;;;;2.08;0.90;;;20.40;54.80;;;;;;5044936;28;20112;-64
2021/10/04 11:36:03;;;;;;;2.33;1.10;;;20.40;54.10;;;;;;5039980;28;20104;-64
2021/10/04 11:38:30;;;;;;;2.88;0.90;;;20.40;53.30;;;;;;5038802;28;20036;-63
2021/10/04 11:40:56;;;;;;;2.95;1.02;;;20.40;54.70;;;;;;5046457;28;20036;-63
2021/10/04 11:43:22;;;;;;;1.85;0.80;;;20.40;53.80;;;;;;5047581;28;20033;-63
2021/10/04 11:45:48;;;;;;;1.60;0.80;;;20.40;53.30;;;;;;5047342;28;20029;-63
2021/10/04 11:48:35;;;;;;;1.38;0.75;;;20.30;53.40;;;;;;5047606;28;20095;-63
2021/10/04 11:51:01;;;;;;;2.28;0.70;;;20.30;53.70;;;;;;5046251;28;20031;-63
2021/10/04 11:53:30;;;;;;;2.13;0.82;;;20.30;53.90;;;;;;5044467;28;20390;-63
2021/10/04 11:56:04;;;;;;;12.02;5.00;;;20.30;52.90;;;;;;5044667;28;20151;-64
2021/10/04 11:58:30;;;;;;;11.07;7.40;;;20.40;53.40;;;;;;5047529;28;20033;-64
2021/10/04 12:00:56;;;;;;;4.55;2.75;;;20.30;53.70;;;;;;5047303;28;20024;-64
2021/10/04 12:03:28;;;;;;;6.57;2.15;;;20.40;52.70;;;;;;5047159;28;20471;-65
2021/10/04 12:05:55;;;;;;;6.38;2.50;;;20.40;52.60;;;;;;5047088;28;20506;-64
2021/10/04 12:08:21;;;;;;;4.60;1.77;;;20.40;52.80;;;;;;5047165;28;20486;-65
2021/10/04 12:10:57;;;;;;;2.58;1.65;;;20.50;52.00;;;;;;5046999;28;20096;-64
2021/10/04 12:13:30;;;;;;;2.78;1.35;;;20.50;52.20;;;;;;5046401;28;20030;-64
2021/10/04 12:15:57;;;;;;;3.55;1.60;;;20.50;51.90;;;;;;5047270;28;20040;-63
2021/10/04 12:18:29;;;;;;;4.55;1.60;;;20.60;52.20;;;;;;5040139;28;20041;-64
2021/10/04 12:21:17;;;;;;;2.30;1.25;;;20.50;51.40;;;;;;5032473;28;20029;-63
2021/10/04 12:23:43;;;;;;;2.25;1.30;;;20.50;51.80;;;;;;5033209;28;20030;-64
2021/10/04 12:26:11;;;;;;;2.72;1.00;;;20.50;51.80;;;;;;5031190;28;20032;-63
2021/10/04 12:28:47;;;;;;;4.68;1.25;;;20.50;52.00;;;;;;5031020;28;20052;-65
2021/10/04 12:31:32;;;;;;;2.38;0.90;;;20.60;52.00;;;;;;5032154;28;20517;-64
2021/10/04 12:33:57;;;;;;;2.05;1.02;;;20.60;51.90;;;;;;5031924;28;20164;-63
2021/10/04 12:36:23;;;;;;;2.15;0.73;;;20.60;51.60;;;;;;5032838;28;20083;-63
2021/10/04 12:38:56;;;;;;;5.80;1.20;;;20.50;52.10;;;;;;5033287;28;20490;-63
2021/10/04 12:41:39;;;;;;;1.52;0.90;;;20.50;52.00;;;;;;5033164;28;20344;-64
2021/10/04 12:44:17;;;;;;;3.15;0.90;;;20.60;52.10;;;;;;5031187;28;20036;-63
2021/10/04 12:47:05;;;;;;;4.25;1.13;;;20.60;52.00;;;;;;5027213;28;20029;-64
2021/10/04 12:49:31;;;;;;;3.40;0.90;;;20.60;51.30;;;;;;5032199;28;20032;-63
2021/10/04 12:52:00;;;;;;;4.22;1.13;;;20.60;51.40;;;;;;5031311;28;20026;-64
2021/10/04 12:54:47;;;;;;;5.80;1.20;;;20.60;51.50;;;;;;5032154;28;20483;-61
2021/10/04 12:57:24;;;;;;;6.28;0.85;;;20.60;51.90;;;;;;5030806;28;20083;-61
2021/10/04 12:59:55;;;;;;;3.85;0.88;;;20.70;51.50;;;;;;5029700;28;20129;-60
2021/10/04 13:02:25;;;;;;;4.85;1.10;;;20.70;51.10;;;;;;5032375;28;20029;-58
2021/10/04 13:04:51;;;;;;;1.95;0.40;;;20.50;51.30;;;;;;5031697;28;20099;-58
2021/10/04 13:07:17;;;;;;;0.90;0.60;;;20.30;51.90;;;;;;5029356;28;20479;-57
2021/10/04 13:09:42;;;;;;;0.85;0.63;;;20.20;51.90;;;;;;5032470;28;20463;-58
2021/10/04 13:12:08;;;;;;;1.85;0.40;;;20.10;52.40;;;;;;5030690;28;20418;-58
2021/10/04 13:14:34;;;;;;;1.05;0.80;;;20.10;53.00;;;;;;5027479;28;20021;-57
2021/10/04 13:16:59;;;;;;;1.98;0.60;;;20.10;53.10;;;;;;5032015;28;20039;-57
2021/10/04 13:19:25;;;;;;;0.40;0.38;;;20.20;53.10;;;;;;5033889;28;20025;-58
2021/10/04 13:21:50;;;;;;;0.30;0.30;;;20.30;53.10;;;;;;5033469;28;20412;-58
2021/10/04 13:24:16;;;;;;;1.45;0.50;;;20.30;52.90;;;;;;5033510;28;20061;-58
2021/10/04 13:26:42;;;;;;;0.70;0.47;;;20.40;52.90;;;;;;5033663;28;20072;-58
2021/10/04 13:29:08;;;;;;;2.05;0.50;;;20.50;52.80;;;;;;5033233;28;20096;-57
2021/10/04 13:31:34;;;;;;;0.63;0.63;;;20.60;52.60;;;;;;5032734;28;20132;-58
2021/10/04 13:34:00;;;;;;;1.17;0.60;;;20.70;52.50;;;;;;5033423;28;20485;-57
2021/10/04 13:36:25;;;;;;;0.50;0.50;;;20.80;52.40;;;;;;5033277;28;20053;-57
2021/10/04 13:38:51;;;;;;;0.57;0.57;;;20.80;52.30;;;;;;5033442;28;20033;-58
2021/10/04 13:41:17;;;;;;;0.85;0.52;;;20.90;52.20;;;;;;5032069;28;20025;-58
2021/10/04 13:43:42;;;;;;;2.17;0.45;;;20.90;52.20;;;;;;5033173;28;20025;-57
2021/10/04 13:46:08;;;;;;;2.90;0.43;;;20.90;52.20;;;;;;5033287;28;20467;-57
2021/10/04 13:48:33;;;;;;;1.75;0.68;;;21.00;52.00;;;;;;5033010;28;20040;-57
2021/10/04 13:50:59;;;;;;;1.58;0.57;;;21.00;52.00;;;;;;5033346;28;20057;-57
2021/10/04 13:53:25;;;;;;;0.40;0.40;;;21.00;51.90;;;;;;5033063;28;20045;-58
2021/10/04 13:55:51;;;;;;;0.43;0.43;;;21.10;51.90;;;;;;5032944;28;20025;-58
2021/10/04 13:58:16;;;;;;;0.50;0.50;;;21.10;51.90;;;;;;5033218;28;20076;-57
2021/10/04 14:00:42;;;;;;;0.47;0.47;;;21.10;51.80;;;;;;5032900;28;20017;-57
2021/10/04 14:03:07;;;;;;;0.50;0.38;;;21.20;51.80;;;;;;5033168;28;20025;-58
2021/10/04 14:05:33;;;;;;;0.82;0.40;;;21.20;51.80;;;;;;5033299;28;20387;-57
2021/10/04 14:07:59;;;;;;;1.00;0.50;;;21.20;51.80;;;;;;5032447;28;20049;-58
2021/10/04 14:10:25;;;;;;;4.82;1.40;;;21.20;51.80;;;;;;5032624;28;20418;-62
2021/10/04 14:12:50;;;;;;;9.38;1.70;;;21.50;51.90;;;;;;5032846;28;20429;-58
2021/10/04 14:15:16;;;;;;;20.63;3.25;;;21.70;51.50;;;;;;5032853;28;20120;-57
2021/10/04 14:17:42;;;;;;;20.55;5.47;;;22.00;51.50;;;;;;5032446;28;20275;-58
2021/10/04 14:20:11;;;;;;;18.48;10.52;;;22.10;51.20;;;;;;5032449;28;20471;-58
2021/10/04 14:22:37;;;;;;;18.65;8.90;;;22.30;50.90;;;;;;5032336;28;20021;-59
2021/10/04 14:25:53;;;;;;;22.98;8.25;;;22.40;50.80;;;;;;5051034;28;20408;-65
2021/10/04 14:28:19;;;;;;;2.58;2.38;;;22.60;51.00;;;;;;5049366;28;20033;-62
2021/10/04 14:30:44;;;;;;;7.72;4.10;;;22.60;49.30;;;;;;5049334;28;20029;-67
2021/10/04 14:33:10;;;;;;;22.60;7.38;;;22.70;49.60;;;;;;5049448;28;20048;-65
2021/10/04 14:35:36;;;;;;;19.92;7.20;;;22.80;49.80;;;;;;5049061;28;20474;-65
2021/10/04 14:38:02;;;;;;;6.07;3.63;;;22.80;49.70;;;;;;5049385;28;20025;-67
2021/10/04 14:40:28;;;;;;;5.68;3.67;;;22.90;49.70;;;;;;5049431;28;20462;-69
2021/10/04 14:42:53;;;;;;;7.90;3.42;;;22.90;49.60;;;;;;5048922;28;20030;-70
2021/10/04 14:45:19;;;;;;;9.25;3.53;;;22.90;50.00;;;;;;5048543;28;20029;-64
2021/10/04 14:47:44;;;;;;;9.75;2.92;;;22.90;49.60;;;;;;5048945;28;20021;-62
2021/10/04 14:50:10;;;;;;;6.90;3.15;;;23.00;49.70;;;;;;5048829;28;20438;-63
2021/10/04 14:52:35;;;;;;;5.95;2.92;;;23.00;49.60;;;;;;5047943;28;20032;-63
2021/10/04 14:55:03;;;;;;;5.00;2.53;;;23.00;49.50;;;;;;5049186;28;20025;-62
2021/10/04 14:57:29;;;;;;;4.20;2.20;;;23.10;49.50;;;;;;5048996;28;20031;-61
2021/10/04 14:59:54;;;;;;;5.13;2.20;;;23.10;49.40;;;;;;5048510;28;20021;-62
2021/10/04 15:02:20;;;;;;;3.65;1.80;;;23.10;49.40;;;;;;5048684;28;20471;-63
2021/10/04 15:04:45;;;;;;;3.67;1.80;;;23.10;49.40;;;;;;5048252;28;20402;-63
2021/10/04 15:07:11;;;;;;;3.83;1.67;;;23.10;49.30;;;;;;5048614;28;20029;-62
2021/10/04 15:09:36;;;;;;;3.10;1.90;;;23.10;49.30;;;;;;5048534;28;20017;-62
2021/10/04 15:12:02;;;;;;;3.10;1.38;;;23.10;49.30;;;;;;5048556;28;20013;-62
2021/10/04 15:14:27;;;;;;;14.60;3.90;;;23.20;49.30;;;;;;5047398;28;20413;-62
2021/10/04 15:16:53;;;;;;;13.05;3.78;;;23.20;50.10;;;;;;5048180;28;20513;-59
2021/10/04 15:19:18;;;;;;;8.02;3.35;;;23.20;49.30;;;;;;5048175;28;20064;-59
2021/10/04 15:21:44;;;;;;;19.75;4.72;;;23.20;49.10;;;;;;5048112;28;20107;-59
2021/10/04 15:24:09;;;;;;;5.90;3.22;;;23.30;49.10;;;;;;5048118;28;20041;-59
2021/10/04 15:26:35;;;;;;;8.45;3.30;;;23.30;49.00;;;;;;5047998;28;20037;-59
2021/10/04 15:29:00;;;;;;;10.38;3.28;;;23.30;48.90;;;;;;5048059;28;20493;-59
2021/10/04 15:31:26;;;;;;;11.27;3.10;;;23.40;48.90;;;;;;5047199;28;20029;-59
2021/10/04 15:33:51;;;;;;;7.80;3.50;;;23.40;48.80;;;;;;5047904;28;20598;-59
2021/10/04 15:36:20;;;;;;;4.80;2.75;;;23.40;48.80;;;;;;5040056;28;20155;-59
2021/10/04 15:38:47;;;;;;;8.02;3.22;;;23.40;48.80;;;;;;5034879;28;20425;-59
2021/10/04 15:41:13;;;;;;;9.50;3.03;;;23.40;48.70;;;;;;5035124;28;20049;-58
2021/10/04 15:43:39;;;;;;;11.65;3.28;;;23.50;48.70;;;;;;5034765;28;20114;-59
2021/10/04 15:46:04;;;;;;;7.10;2.85;;;23.50;48.70;;;;;;5034553;28;20467;-59
2021/10/04 15:48:30;;;;;;;4.80;2.50;;;23.50;48.70;;;;;;5034535;28;20047;-59
2021/10/04 15:50:57;;;;;;;8.30;2.70;;;23.50;48.70;;;;;;5034598;28;20048;-59
2021/10/04 15:53:22;;;;;;;6.03;2.40;;;23.50;48.70;;;;;;5033347;28;20460;-59
2021/10/04 15:55:48;;;;;;;5.93;2.38;;;23.50;48.60;;;;;;5034221;28;20040;-59
2021/10/04 15:58:14;;;;;;;2.85;2.25;;;23.50;48.60;;;;;;5034650;28;20038;-59
2021/10/04 16:00:39;;;;;;;7.68;2.88;;;23.50;48.60;;;;;;5034336;28;20415;-59
2021/10/04 16:03:05;;;;;;;5.32;2.65;;;23.60;48.60;;;;;;5034194;28;20040;-60
2021/10/04 16:05:30;;;;;;;7.55;2.95;;;23.50;48.60;;;;;;5034199;28;20063;-59
2021/10/04 16:08:02;;;;;;;6.15;3.20;;;23.60;48.60;;;;;;5034039;28;20057;-59
2021/10/04 16:10:28;;;;;;;4.27;2.30;;;23.60;48.60;;;;;;5034296;28;20029;-59
2021/10/04 16:12:54;;;;;;;5.00;2.35;;;23.60;48.60;;;;;;5033955;28;20358;-59
2021/10/04 16:15:20;;;;;;;9.73;2.33;;;23.60;48.50;;;;;;5034332;28;20052;-59
2021/10/04 16:17:45;;;;;;;4.90;2.65;;;23.60;48.60;;;;;;5034091;28;20140;-59
2021/10/04 16:20:11;;;;;;;5.43;2.20;;;23.50;48.40;;;;;;5034264;28;20565;-59
2021/10/04 16:22:36;;;;;;;4.97;2.35;;;23.60;48.50;;;;;;5034011;28;20477;-59
2021/10/04 16:25:02;;;;;;;4.90;2.17;;;23.60;48.60;;;;;;5033631;28;20049;-59
2021/10/04 16:27:27;;;;;;;8.40;2.10;;;23.60;48.60;;;;;;5034149;28;20028;-59
2021/10/04 16:29:53;;;;;;;6.18;2.50;;;23.60;48.50;;;;;;5033656;28;20497;-59
2021/10/04 16:32:18;;;;;;;5.63;2.30;;;23.60;48.60;;;;;;5033698;28;20529;-60
2021/10/04 16:34:44;;;;;;;5.00;1.90;;;23.60;48.60;;;;;;5033488;28;20029;-58
2021/10/04 16:37:10;;;;;;;11.15;2.30;;;23.50;48.60;;;;;;5033739;28;20033;-59
2021/10/04 16:39:35;;;;;;;4.13;1.83;;;23.60;48.60;;;;;;5033894;28;20037;-59
2021/10/04 16:42:01;;;;;;;3.28;2.03;;;23.50;48.50;;;;;;5033674;28;20364;-59
2021/10/04 16:44:26;;;;;;;3.45;1.90;;;23.60;48.60;;;;;;5033731;28;20033;-59
2021/10/04 16:46:52;;;;;;;3.60;1.70;;;23.50;48.60;;;;;;5032792;28;20024;-59
2021/10/04 16:49:18;;;;;;;3.47;1.65;;;23.60;48.70;;;;;;5033214;28;20113;-59
2021/10/04 16:51:43;;;;;;;3.50;2.00;;;23.60;48.70;;;;;;5033558;28;20108;-59
2021/10/04 16:54:09;;;;;;;3.50;2.33;;;23.50;48.60;;;;;;5033378;28;20049;-59
2021/10/04 16:56:34;;;;;;;5.65;1.90;;;23.50;48.60;;;;;;5033142;28;20036;-59
2021/10/04 16:59:00;;;;;;;5.57;1.70;;;23.50;48.60;;;;;;5033264;28;20075;-59
2021/10/04 17:01:25;;;;;;;4.32;2.00;;;23.50;48.70;;;;;;5033201;28;20076;-59
2021/10/04 17:03:51;;;;;;;2.63;1.85;;;23.50;48.70;;;;;;5032929;28;20034;-59
2021/10/04 17:06:16;;;;;;;2.03;1.65;;;23.50;48.70;;;;;;5033379;28;20041;-59
2021/10/04 17:08:42;;;;;;;5.05;2.00;;;23.50;48.70;;;;;;5033308;28;20101;-59
2021/10/04 17:11:07;;;;;;;3.72;1.70;;;23.50;48.70;;;;;;5033276;28;20063;-58
2021/10/04 17:13:33;;;;;;;3.05;2.00;;;23.50;48.70;;;;;;5033322;28;20470;-59
2021/10/04 17:15:59;;;;;;;6.97;1.98;;;23.50;48.70;;;;;;5032845;28;20380;-59
2021/10/04 17:18:24;;;;;;;2.28;1.70;;;23.50;48.70;;;;;;5032806;28;20064;-59
2021/10/04 17:20:50;;;;;;;1.85;1.50;;;23.50;48.80;;;;;;5032992;28;20391;-59
2021/10/04 17:23:15;;;;;;;1.92;1.50;;;23.40;48.70;;;;;;5032982;28;20025;-59
2021/10/04 17:25:41;;;;;;;3.70;1.60;;;23.50;48.80;;;;;;5031243;28;20060;-59
2021/10/04 17:28:06;;;;;;;4.32;1.90;;;23.50;48.80;;;;;;5032688;28;20032;-59
2021/10/04 17:30:32;;;;;;;3.03;1.33;;;23.40;48.80;;;;;;5032934;28;20037;-59
2021/10/04 17:32:57;;;;;;;3.47;1.38;;;23.40;48.80;;;;;;5032455;28;20021;-59
2021/10/04 17:35:25;;;;;;;2.25;1.50;;;23.50;48.90;;;;;;5032818;28;20463;-59
2021/10/04 17:37:50;;;;;;;2.70;1.30;;;23.40;48.90;;;;;;5032383;28;20026;-59
2021/10/04 17:40:16;;;;;;;2.10;1.20;;;23.40;48.90;;;;;;5032845;28;20041;-59
2021/10/04 17:42:42;;;;;;;1.63;1.40;;;23.40;48.90;;;;;;5032642;28;20022;-59
2021/10/04 17:45:09;;;;;;;2.72;1.33;;;23.40;48.90;;;;;;5032502;28;20121;-59
2021/10/04 17:47:36;;;;;;;1.15;1.00;;;23.40;49.00;;;;;;5032545;28;20037;-59
2021/10/04 17:50:02;;;;;;;3.50;1.00;;;23.40;49.00;;;;;;5032187;28;20032;-58
2021/10/04 17:52:28;;;;;;;1.90;1.40;;;23.40;49.00;;;;;;5032399;28;20109;-58
2021/10/04 17:54:54;;;;;;;1.50;1.40;;;23.40;49.70;;;;;;5032039;28;20560;-58
2021/10/04 17:57:20;;;;;;;4.68;1.50;;;23.40;49.00;;;;;;5032353;28;20112;-59
2021/10/04 17:59:45;;;;;;;1.60;1.48;;;23.30;49.00;;;;;;5031959;28;20108;-58
2021/10/04 18:02:11;;;;;;;2.53;1.40;;;23.30;49.10;;;;;;5032235;28;20060;-58
2021/10/04 18:04:38;;;;;;;3.10;1.33;;;23.30;49.10;;;;;;5032034;28;20075;-59
2021/10/04 18:07:04;;;;;;;1.70;1.13;;;23.30;49.10;;;;;;5032218;28;20029;-58
2021/10/04 18:09:30;;;;;;;2.03;1.30;;;23.30;49.10;;;;;;5032166;28;20029;-58
2021/10/04 18:11:55;;;;;;;1.40;1.10;;;23.30;49.10;;;;;;5031904;28;20022;-58
2021/10/04 18:14:21;;;;;;;2.15;1.15;;;23.30;49.20;;;;;;5032274;28;20018;-58
2021/10/04 18:16:47;;;;;;;1.48;1.20;;;23.30;49.20;;;;;;5031848;28;20025;-58
2021/10/04 18:19:12;;;;;;;1.95;1.15;;;23.30;49.20;;;;;;5031949;28;20032;-58
2021/10/04 18:21:38;;;;;;;3.08;1.15;;;23.20;49.90;;;;;;5032220;28;20068;-59
2021/10/04 18:24:04;;;;;;;1.48;1.05;;;23.20;49.20;;;;;;5031573;28;20594;-59
2021/10/04 18:26:31;;;;;;;1.13;1.02;;;23.20;49.20;;;;;;5032124;28;20306;-58
2021/10/04 18:28:57;;;;;;;1.63;1.10;;;23.20;49.30;;;;;;5032111;28;20071;-58
2021/10/04 18:31:23;;;;;;;1.80;1.17;;;23.20;49.30;;;;;;5031916;28;20100;-58
2021/10/04 18:33:49;;;;;;;1.35;1.05;;;23.20;49.30;;;;;;5031730;28;20494;-58
2021/10/04 18:36:14;;;;;;;1.92;1.30;;;23.20;49.30;;;;;;5031876;28;20096;-58
2021/10/04 18:38:40;;;;;;;1.50;0.98;;;23.20;49.40;;;;;;5031769;28;20029;-58
2021/10/04 18:41:06;;;;;;;1.60;1.10;;;23.20;49.40;;;;;;5032012;28;20018;-60
2021/10/04 18:43:31;;;;;;;1.35;1.02;;;23.20;49.40;;;;;;5032210;28;20356;-58
2021/10/04 18:45:57;;;;;;;1.25;1.15;;;23.20;49.40;;;;;;5031723;28;20390;-58
2021/10/04 18:48:22;;;;;;;2.58;1.00;;;23.20;49.50;;;;;;5031702;28;20075;-58
2021/10/04 18:50:48;;;;;;;2.20;1.17;;;23.10;49.40;;;;;;5031907;28;20424;-58
2021/10/04 18:53:13;;;;;;;3.08;0.80;;;23.10;49.50;;;;;;5031985;28;20296;-58
2021/10/04 18:55:40;;;;;;;0.95;0.90;;;23.10;49.50;;;;;;5031638;28;20377;-58
2021/10/04 18:58:06;;;;;;;1.45;1.02;;;23.10;49.50;;;;;;5031596;28;20137;-58
2021/10/04 19:00:35;;;;;;;2.25;1.00;;;23.10;49.50;;;;;;5031706;28;20022;-58
2021/10/04 19:03:01;;;;;;;1.15;0.90;;;23.10;49.60;;;;;;5031420;28;20479;-58
2021/10/04 19:05:26;;;;;;;1.00;0.90;;;23.10;49.60;;;;;;5031700;28;20040;-58
2021/10/04 19:07:52;;;;;;;0.82;0.80;;;23.10;49.60;;;;;;5031435;28;20029;-58
2021/10/04 19:10:20;;;;;;;1.20;1.00;;;23.10;49.60;;;;;;5031594;28;20056;-58
2021/10/04 19:12:46;;;;;;;1.52;0.82;;;23.00;49.60;;;;;;5035315;28;20399;-58
2021/10/04 19:15:12;;;;;;;0.77;0.77;;;23.00;49.70;;;;;;5035331;28;20028;-58
2021/10/04 19:17:38;;;;;;;1.27;0.80;;;23.10;49.70;;;;;;5035070;28;20028;-58
2021/10/04 19:20:05;;;;;;;0.70;0.70;;;23.00;49.70;;;;;;5035352;28;20507;-58
2021/10/04 19:22:31;;;;;;;1.27;0.70;;;23.00;49.70;;;;;;5035364;28;20025;-58
2021/10/04 19:24:56;;;;;;;1.25;0.95;;;23.00;49.80;;;;;;5034780;28;20037;-58
2021/10/04 19:27:23;;;;;;;0.93;0.80;;;23.00;49.80;;;;;;5034966;28;20044;-58
2021/10/04 19:29:49;;;;;;;1.33;0.90;;;23.00;49.80;;;;;;5034989;28;20498;-58
2021/10/04 19:32:15;;;;;;;0.80;0.80;;;23.00;49.80;;;;;;5033500;28;20026;-58
2021/10/04 19:34:41;;;;;;;1.00;0.90;;;23.00;49.90;;;;;;5033634;28;20025;-58
2021/10/04 19:37:07;;;;;;;1.00;0.80;;;23.00;49.90;;;;;;5034943;28;20030;-58
2021/10/04 19:39:32;;;;;;;1.38;0.80;;;23.00;49.90;;;;;;5033641;28;20028;-58
2021/10/04 19:41:58;;;;;;;0.93;0.80;;;23.00;49.90;;;;;;5035180;28;20026;-58
2021/10/04 19:44:23;;;;;;;0.82;0.73;;;23.00;49.90;;;;;;5034661;28;20041;-58
2021/10/04 19:46:49;;;;;;;0.73;0.70;;;22.90;49.90;;;;;;5034826;28;20048;-58
2021/10/04 19:49:15;;;;;;;0.80;0.80;;;22.90;49.90;;;;;;5034532;28;20022;-58
2021/10/04 19:51:41;;;;;;;1.85;0.80;;;22.90;49.90;;;;;;5034584;28;20041;-58
2021/10/04 19:54:13;;;;;;;0.90;0.90;;;22.90;50.00;;;;;;5034413;28;20036;-58
2021/10/04 19:56:38;;;;;;;0.88;0.70;;;22.90;50.00;;;;;;5034477;28;20037;-58
2021/10/04 19:59:04;;;;;;;0.50;0.50;;;22.90;50.00;;;;;;5034535;28;20380;-59
2021/10/04 20:01:29;;;;;;;0.70;0.70;;;22.90;50.00;;;;;;5034651;28;20113;-58
2021/10/04 20:03:55;;;;;;;0.90;0.73;;;22.90;50.00;;;;;;5034181;28;20037;-58
2021/10/04 20:06:20;;;;;;;1.52;0.80;;;22.90;50.10;;;;;;5033044;28;20037;-58
2021/10/04 20:08:48;;;;;;;2.70;0.80;;;22.90;50.10;;;;;;5034273;28;20029;-58
2021/10/04 20:11:14;;;;;;;0.70;0.70;;;22.80;50.10;;;;;;5034349;28;20499;-59
2021/10/04 20:13:40;;;;;;;0.80;0.75;;;22.90;50.10;;;;;;5034191;28;20262;-58
2021/10/04 20:16:05;;;;;;;0.75;0.65;;;22.80;50.10;;;;;;5034269;28;20100;-58
2021/10/04 20:18:31;;;;;;;0.70;0.70;;;22.80;50.10;;;;;;5034203;28;20041;-58
2021/10/04 20:20:56;;;;;;;0.65;0.65;;;22.80;50.10;;;;;;5034137;28;20108;-58
2021/10/04 20:23:22;;;;;;;1.95;1.42;;;22.80;50.10;;;;;;5033945;28;20021;-58
2021/10/04 20:25:48;;;;;;;0.77;0.68;;;22.80;50.10;;;;;;5033641;28;20398;-58
2021/10/04 20:28:14;;;;;;;0.98;0.70;;;22.80;50.10;;;;;;5034093;28;20471;-58
2021/10/04 20:30:39;;;;;;;0.60;0.60;;;22.80;50.20;;;;;;5033949;28;20116;-58
2021/10/04 20:33:05;;;;;;;0.60;0.60;;;22.80;50.20;;;;;;5033913;28;20353;-58
2021/10/04 20:35:30;;;;;;;0.68;0.68;;;22.80;50.20;;;;;;5033892;28;20026;-58
2021/10/04 20:37:56;;;;;;;0.60;0.60;;;22.70;50.10;;;;;;5033619;28;20391;-58
2021/10/04 20:40:22;;;;;;;0.60;0.60;;;22.70;50.20;;;;;;5034040;28;20025;-58
2021/10/04 20:42:48;;;;;;;0.57;0.57;;;22.70;50.20;;;;;;5033841;28;20069;-58
2021/10/04 20:45:13;;;;;;;1.50;0.70;;;22.70;50.20;;;;;;5033253;28;20034;-59
2021/10/04 20:47:39;;;;;;;1.02;0.68;;;22.70;50.20;;;;;;5033724;28;20032;-58
2021/10/04 20:50:06;;;;;;;0.73;0.65;;;22.70;50.20;;;;;;5033594;28;20063;-58
2021/10/04 20:52:31;;;;;;;0.68;0.68;;;22.70;50.20;;;;;;5033798;28;20072;-58
2021/10/04 20:54:57;;;;;;;0.50;0.50;;;22.70;50.20;;;;;;5033414;28;20029;-58
2021/10/04 20:57:22;;;;;;;0.50;0.50;;;22.70;50.30;;;;;;5033388;28;20060;-59
2021/10/04 20:59:48;;;;;;;0.60;0.60;;;22.70;50.30;;;;;;5033579;28;20029;-59
2021/10/04 21:02:14;;;;;;;0.70;0.50;;;22.70;50.30;;;;;;5033196;28;20053;-58
2021/10/04 21:04:39;;;;;;;0.50;0.50;;;22.70;50.30;;;;;;5033133;28;20040;-58
2021/10/04 21:07:06;;;;;;;0.60;0.60;;;22.70;50.30;;;;;;5033206;28;20014;-58
2021/10/04 21:09:32;;;;;;;0.55;0.55;;;22.70;50.40;;;;;;5033149;28;20040;-58
2021/10/04 21:11:58;;;;;;;0.98;0.50;;;22.70;50.30;;;;;;5033155;28;20025;-58
2021/10/04 21:14:23;;;;;;;1.67;0.70;;;22.70;50.30;;;;;;5033316;28;20030;-58
2021/10/04 21:16:49;;;;;;;0.50;0.50;;;22.60;50.30;;;;;;5032847;28;20037;-58
2021/10/04 21:19:14;;;;;;;0.68;0.50;;;22.60;50.30;;;;;;5033012;28;20026;-58
2021/10/04 21:21:40;;;;;;;1.30;0.50;;;22.60;50.30;;;;;;5033134;28;20025;-58
2021/10/04 21:24:05;;;;;;;0.60;0.60;;;22.60;50.30;;;;;;5032637;28;20373;-59
2021/10/04 21:26:31;;;;;;;0.68;0.50;;;22.60;50.30;;;;;;5032792;28;20425;-58
2021/10/04 21:28:57;;;;;;;0.50;0.50;;;22.60;50.30;;;;;;5031732;28;20022;-58
2021/10/04 21:31:23;;;;;;;0.60;0.60;;;22.60;50.30;;;;;;5032588;28;20039;-58
2021/10/04 21:33:49;;;;;;;0.43;0.43;;;22.60;50.30;;;;;;5032305;28;20025;-58
2021/10/04 21:36:14;;;;;;;0.77;0.63;;;22.60;50.40;;;;;;5032717;28;20113;-58
2021/10/04 21:38:40;;;;;;;0.63;0.63;;;22.60;50.40;;;;;;5032466;28;20041;-58
2021/10/04 21:41:05;;;;;;;0.65;0.60;;;22.60;50.40;;;;;;5032415;28;20044;-58
2021/10/04 21:43:31;;;;;;;0.40;0.40;;;22.60;50.40;;;;;;5032718;28;20029;-59
2021/10/04 21:45:56;;;;;;;1.13;0.50;;;22.60;50.40;;;;;;5032370;28;20055;-58
2021/10/04 21:48:22;;;;;;;0.80;0.70;;;22.60;50.40;;;;;;5032280;28;20471;-58
2021/10/04 21:50:47;;;;;;;0.93;0.55;;;22.60;50.40;;;;;;5032322;28;20041;-58
2021/10/04 21:53:13;;;;;;;0.50;0.50;;;22.60;50.40;;;;;;5032444;28;20026;-58
2021/10/04 21:55:38;;;;;;;0.50;0.50;;;22.60;50.40;;;;;;5032355;28;20018;-58
2021/10/04 21:58:05;;;;;;;0.70;0.60;;;22.50;50.40;;;;;;5032183;28;20029;-58
2021/10/04 22:00:39;;;;;;;0.60;0.50;;;22.60;50.40;;;;;;5032270;28;20401;-58
2021/10/04 22:06:03;;;;;;;0.40;0.40;;;22.50;50.40;;;;;;5032195;28;20385;-58
2021/10/04 22:11:12;;;;;;;0.60;0.60;;;22.50;50.50;;;;;;5032279;28;20040;-58
2021/10/04 22:13:38;;;;;;;0.40;0.40;;;22.50;50.50;;;;;;5032062;28;20025;-58
2021/10/04 22:16:04;;;;;;;0.47;0.47;;;22.50;50.50;;;;;;5031919;28;20084;-58
2021/10/04 22:18:30;;;;;;;0.63;0.50;;;22.50;50.50;;;;;;5031944;28;20025;-58
2021/10/04 22:20:56;;;;;;;0.50;0.50;;;22.50;50.50;;;;;;5032015;28;20021;-58
2021/10/04 22:23:21;;;;;;;0.50;0.50;;;22.50;50.50;;;;;;5031817;28;20061;-58
2021/10/04 22:25:47;;;;;;;0.90;0.50;;;22.50;50.50;;;;;;5031528;28;20132;-58
2021/10/04 22:28:13;;;;;;;1.42;0.60;;;22.50;50.50;;;;;;5032041;28;20117;-58
2021/10/04 22:30:39;;;;;;;1.55;0.52;;;22.50;50.50;;;;;;5031787;28;20538;-58
2021/10/04 22:33:04;;;;;;;0.70;0.70;;;22.50;50.50;;;;;;5030445;28;20029;-58
2021/10/04 22:35:30;;;;;;;0.40;0.40;;;22.50;50.50;;;;;;5032051;28;20510;-58
2021/10/04 22:37:55;;;;;;;0.40;0.40;;;22.50;50.50;;;;;;5031847;28;20033;-58
2021/10/04 22:40:21;;;;;;;1.15;0.40;;;22.40;50.50;;;;;;5031913;28;20033;-58
2021/10/04 22:42:47;;;;;;;0.88;0.52;;;22.50;50.60;;;;;;5031984;28;20017;-58
2021/10/04 22:45:12;;;;;;;0.38;0.38;;;22.40;50.50;;;;;;5031518;28;20045;-58
2021/10/04 22:47:38;;;;;;;0.50;0.50;;;22.40;50.50;;;;;;5035633;28;20017;-58
2021/10/04 22:50:03;;;;;;;0.95;0.57;;;22.40;50.50;;;;;;5035757;28;20025;-58
2021/10/04 22:52:29;;;;;;;0.52;0.40;;;22.40;50.60;;;;;;5035736;28;20021;-58
2021/10/04 22:54:54;;;;;;;0.52;0.30;;;22.40;50.50;;;;;;5035692;28;20029;-58
2021/10/04 22:57:20;;;;;;;0.50;0.50;;;22.40;50.60;;;;;;5035468;28;20498;-57
2021/10/04 22:59:45;;;;;;;0.63;0.47;;;22.40;50.60;;;;;;5035838;28;20422;-58
2021/10/04 23:02:11;;;;;;;0.50;0.50;;;22.40;50.60;;;;;;5034068;28;20044;-57
2021/10/04 23:04:37;;;;;;;0.50;0.40;;;22.40;50.60;;;;;;5035692;28;20083;-57
2021/10/04 23:07:02;;;;;;;0.30;0.30;;;22.30;50.50;;;;;;5035291;28;20431;-58
2021/10/04 23:09:28;;;;;;;0.43;0.43;;;22.40;50.60;;;;;;5035582;28;20116;-57
2021/10/04 23:11:53;;;;;;;0.50;0.50;;;22.40;50.60;;;;;;5035502;28;20017;-57
2021/10/04 23:14:19;;;;;;;0.55;0.45;;;22.40;50.60;;;;;;5035654;28;20021;-58
2021/10/04 23:16:45;;;;;;;0.55;0.45;;;22.30;50.60;;;;;;5035389;28;20057;-58
2021/10/04 23:19:10;;;;;;;0.65;0.65;;;22.30;51.00;;;;;;5035201;28;20021;-58
2021/10/04 23:21:36;;;;;;;0.40;0.40;;;22.30;50.60;;;;;;5035134;28;20021;-58
2021/10/04 23:24:01;;;;;;;0.45;0.45;;;22.30;50.60;;;;;;5034804;28;20041;-57
2021/10/04 23:26:27;;;;;;;1.25;0.50;;;22.30;50.60;;;;;;5035095;28;20092;-58
2021/10/04 23:28:52;;;;;;;1.02;0.52;;;22.30;50.60;;;;;;5035238;28;20163;-58
2021/10/04 23:31:18;;;;;;;0.52;0.40;;;22.30;50.60;;;;;;5035037;28;20033;-58
2021/10/04 23:33:43;;;;;;;0.38;0.38;;;22.30;50.60;;;;;;5034791;28;20391;-58
2021/10/04 23:36:09;;;;;;;0.40;0.40;;;22.30;50.60;;;;;;5034937;28;20021;-58
2021/10/04 23:38:35;;;;;;;0.50;0.50;;;22.30;50.60;;;;;;5034780;28;20107;-58
2021/10/04 23:41:00;;;;;;;0.40;0.40;;;22.30;50.60;;;;;;5034967;28;20053;-58
2021/10/04 23:43:26;;;;;;;0.57;0.50;;;22.30;50.60;;;;;;5034605;28;20108;-58
2021/10/04 23:45:51;;;;;;;0.45;0.40;;;22.30;50.70;;;;;;5034498;28;20472;-58
2021/10/04 23:48:20;;;;;;;0.90;0.40;;;22.30;50.70;;;;;;5034815;28;20021;-58
2021/10/04 23:50:45;;;;;;;0.40;0.40;;;22.30;50.70;;;;;;5034644;28;20029;-59
2021/10/04 23:53:11;;;;;;;0.43;0.40;;;22.30;50.70;;;;;;5033129;28;20018;-58
2021/10/04 23:55:36;;;;;;;0.47;0.40;;;22.20;50.70;;;;;;5034358;28;20033;-58